Time;durP1;ratioP1;P1;durP2;ratioP2;P2;SDS_P1;SDS_P2;PMS_P1;PMS_P2;Temp;Humidity;BMP_temperature;BMP_pressure;BME280_temperature;BME280_humidity;BME280_pressure;Samples;Min_cycle;Max_cycle;Signal;HPM_P1;HPM_P2
2023/10/18 00:00:28;;;;;;;24.07;13.73;;;2.40;99.90;;;;;;4244725;27;20275;-62
2023/10/18 00:02:30;;;;;;;24.90;12.70;;;2.40;99.90;;;;;;4245421;27;20316;-56
2023/10/18 00:04:31;;;;;;;23.80;12.40;;;2.40;99.90;;;;;;4244245;27;20298;-61
2023/10/18 00:06:32;;;;;;;27.63;14.43;;;2.50;99.90;;;;;;4245373;27;20360;-59
2023/10/18 00:08:34;;;;;;;23.37;12.73;;;2.50;99.90;;;;;;4243254;27;20275;-54
2023/10/18 00:10:35;;;;;;;23.50;13.10;;;2.40;99.90;;;;;;4245434;27;20287;-52
2023/10/18 00:12:38;;;;;;;21.97;11.13;;;2.40;99.90;;;;;;4244040;27;20355;-58
2023/10/18 00:14:39;;;;;;;24.93;12.17;;;2.30;99.90;;;;;;4244604;27;20307;-60
2023/10/18 00:16:41;;;;;;;21.37;12.27;;;2.30;99.90;;;;;;4244298;27;20328;-61
2023/10/18 00:18:42;;;;;;;20.70;12.03;;;2.20;99.90;;;;;;4244572;27;20819;-56
2023/10/18 00:20:43;;;;;;;22.97;12.77;;;2.20;99.90;;;;;;4243928;27;20271;-56
2023/10/18 00:22:45;;;;;;;25.43;12.00;;;2.30;99.90;;;;;;4244851;27;20256;-61
2023/10/18 00:24:46;;;;;;;19.73;11.07;;;2.30;99.90;;;;;;4243794;27;20385;-60
2023/10/18 00:26:47;;;;;;;23.63;12.23;;;2.20;99.90;;;;;;4244456;27;20260;-61
2023/10/18 00:28:48;;;;;;;23.13;12.23;;;2.20;99.90;;;;;;4244423;27;20263;-60
2023/10/18 00:30:52;;;;;;;26.43;12.33;;;2.20;99.90;;;;;;4244481;27;20263;-61
2023/10/18 00:32:53;;;;;;;23.23;12.73;;;2.20;99.90;;;;;;4245078;27;20263;-59
2023/10/18 00:34:54;;;;;;;22.07;11.80;;;2.20;99.90;;;;;;4243399;27;20299;-61
2023/10/18 00:36:55;;;;;;;20.07;11.07;;;2.20;99.90;;;;;;4244796;27;20291;-59
2023/10/18 00:38:56;;;;;;;22.07;11.03;;;2.20;99.90;;;;;;4243923;27;20332;-60
2023/10/18 00:40:58;;;;;;;21.10;10.77;;;2.20;99.90;;;;;;4243567;27;20287;-59
2023/10/18 00:43:15;;;;;;;18.77;10.20;;;2.10;99.90;;;;;;4243284;27;20267;-60
2023/10/18 00:45:19;;;;;;;19.13;10.30;;;2.00;99.90;;;;;;4243921;27;20279;-59
2023/10/18 00:47:22;;;;;;;18.03;9.77;;;2.00;99.90;;;;;;4242741;27;20363;-59
2023/10/18 00:49:24;;;;;;;20.17;9.60;;;1.90;99.90;;;;;;4244479;27;20291;-57
2023/10/18 00:51:32;;;;;;;18.73;10.37;;;1.80;99.90;;;;;;4243345;27;20275;-58
2023/10/18 00:53:33;;;;;;;16.73;9.63;;;1.70;99.90;;;;;;4244174;27;20666;-60
2023/10/18 00:55:34;;;;;;;16.03;9.13;;;1.70;99.90;;;;;;4243515;27;20268;-60
2023/10/18 00:57:37;;;;;;;17.90;9.87;;;1.60;99.90;;;;;;4243193;27;20794;-60
2023/10/18 00:59:38;;;;;;;15.83;9.57;;;1.60;99.90;;;;;;4243567;27;20320;-59
2023/10/18 01:01:43;;;;;;;17.60;10.07;;;1.70;99.90;;;;;;4243971;27;20347;-60
2023/10/18 01:03:49;;;;;;;15.33;9.37;;;1.60;99.90;;;;;;4243861;27;20275;-58
2023/10/18 01:06:05;;;;;;;17.47;9.60;;;1.70;99.90;;;;;;4244446;27;20336;-59
2023/10/18 01:08:09;;;;;;;20.90;9.50;;;1.70;99.90;;;;;;4243707;28;20251;-60
2023/10/18 01:10:12;;;;;;;21.73;9.83;;;1.70;99.90;;;;;;4244362;28;20320;-60
2023/10/18 01:12:15;;;;;;;18.63;10.93;;;1.70;99.90;;;;;;4244290;27;20271;-60
2023/10/18 01:14:24;;;;;;;19.43;10.70;;;1.70;99.90;;;;;;4243713;27;20379;-59
2023/10/18 01:16:30;;;;;;;19.83;10.67;;;1.70;99.90;;;;;;4243906;28;20276;-59
2023/10/18 01:18:31;;;;;;;19.30;11.27;;;1.70;99.90;;;;;;4243658;27;20275;-58
2023/10/18 01:22:37;;;;;;;17.93;11.10;;;1.70;99.90;;;;;;4243244;28;20669;-58
2023/10/18 01:24:39;;;;;;;20.70;11.33;;;1.80;99.90;;;;;;4244235;28;20347;-60
2023/10/18 01:26:40;;;;;;;20.73;10.20;;;1.80;99.90;;;;;;4242978;28;20271;-60
2023/10/18 01:28:42;;;;;;;20.03;10.63;;;1.80;99.90;;;;;;4244577;28;20660;-60
2023/10/18 01:30:43;;;;;;;17.90;10.17;;;1.80;99.90;;;;;;4245063;27;20356;-60
2023/10/18 01:32:44;;;;;;;18.37;8.90;;;1.70;99.90;;;;;;4247460;27;20581;-55
2023/10/18 01:34:45;;;;;;;15.17;8.30;;;1.70;99.90;;;;;;4246707;27;20399;-60
2023/10/18 01:36:46;;;;;;;16.70;8.43;;;1.60;99.90;;;;;;4247705;27;20745;-60
2023/10/18 01:38:52;;;;;;;19.30;8.77;;;1.50;99.90;;;;;;4246817;27;20324;-61
2023/10/18 01:40:53;;;;;;;14.70;8.43;;;1.30;99.90;;;;;;4247889;27;20271;-61
2023/10/18 01:42:58;;;;;;;16.50;9.97;;;1.20;99.90;;;;;;4246349;27;20275;-59
2023/10/18 01:44:59;;;;;;;17.07;8.57;;;1.10;99.90;;;;;;4247331;27;20779;-61
2023/10/18 01:47:07;;;;;;;15.87;9.37;;;1.10;99.90;;;;;;4246240;27;20271;-60
2023/10/18 01:49:13;;;;;;;20.23;10.73;;;1.00;99.90;;;;;;4246836;27;20324;-59
2023/10/18 01:51:14;;;;;;;22.43;10.10;;;1.00;99.90;;;;;;4245548;27;20287;-59
2023/10/18 01:53:15;;;;;;;20.43;10.47;;;0.90;99.90;;;;;;4246258;27;20271;-61
2023/10/18 01:55:17;;;;;;;20.30;9.90;;;0.90;99.90;;;;;;4246892;27;20336;-60
2023/10/18 01:57:18;;;;;;;21.27;11.10;;;0.90;99.90;;;;;;4244693;27;20303;-58
2023/10/18 01:59:21;;;;;;;19.20;9.17;;;0.90;99.90;;;;;;4247095;27;20362;-60
2023/10/18 02:01:22;;;;;;;21.77;9.93;;;0.90;99.90;;;;;;4246509;27;20279;-59
2023/10/18 02:03:24;;;;;;;19.73;10.23;;;0.90;99.90;;;;;;4246460;27;20753;-61
2023/10/18 02:05:26;;;;;;;20.27;10.37;;;0.80;99.90;;;;;;4246185;27;20264;-61
2023/10/18 02:07:27;;;;;;;21.67;11.93;;;0.70;99.90;;;;;;4245769;27;20629;-59
2023/10/18 02:09:48;;;;;;;29.07;14.27;;;0.60;99.90;;;;;;4246258;27;20324;-59
2023/10/18 02:11:50;;;;;;;;;;;0.50;99.90;;;;;;4247835;27;20279;-61
2023/10/18 02:13:52;;;;;;;24.63;14.33;;;0.50;99.90;;;;;;4245949;27;19911;-60
2023/10/18 02:15:53;;;;;;;24.40;14.37;;;0.40;99.90;;;;;;4247136;27;20279;-61
2023/10/18 02:17:57;;;;;;;30.90;17.50;;;0.40;99.90;;;;;;4246160;27;20403;-61
2023/10/18 02:20:00;;;;;;;40.50;19.63;;;0.40;99.90;;;;;;4247495;27;20719;-62
2023/10/18 02:22:01;;;;;;;42.30;24.40;;;0.30;99.90;;;;;;4246120;27;20328;-56
2023/10/18 02:24:02;;;;;;;44.27;23.63;;;0.30;99.90;;;;;;4246319;27;20275;-61
2023/10/18 02:28:27;;;;;;;38.37;19.77;;;0.40;99.90;;;;;;4246793;27;20305;-61
2023/10/18 02:30:31;;;;;;;35.10;21.43;;;0.40;99.90;;;;;;4245878;27;20340;-61
2023/10/18 02:32:34;;;;;;;38.13;20.77;;;0.50;99.90;;;;;;4246682;27;20296;-62
2023/10/18 02:34:38;;;;;;;36.60;21.60;;;0.50;99.90;;;;;;4246447;27;20256;-58
2023/10/18 02:36:39;;;;;;;39.17;21.13;;;0.60;99.90;;;;;;4246446;27;20267;-57
2023/10/18 02:38:41;;;;;;;36.07;19.57;;;0.60;99.90;;;;;;4245636;27;20301;-59
2023/10/18 02:40:43;;;;;;;38.27;22.57;;;0.60;99.90;;;;;;4229100;27;20329;-54
2023/10/18 02:42:44;;;;;;;36.57;20.73;;;0.60;99.90;;;;;;4243386;27;20317;-56
2023/10/18 02:44:46;;;;;;;34.97;21.83;;;0.60;99.90;;;;;;4245076;27;20295;-58
2023/10/18 02:46:51;;;;;;;37.03;22.07;;;0.60;99.90;;;;;;4246250;27;20267;-57
2023/10/18 02:48:54;;;;;;;34.83;20.07;;;0.60;99.90;;;;;;4245636;27;20276;-57
2023/10/18 02:50:57;;;;;;;39.37;19.63;;;0.60;99.90;;;;;;4245473;27;20283;-54
2023/10/18 02:53:00;;;;;;;33.87;20.53;;;0.60;99.90;;;;;;4245342;27;20333;-57
2023/10/18 02:55:02;;;;;;;39.53;22.27;;;0.60;99.90;;;;;;4246753;27;20263;-57
2023/10/18 02:57:05;;;;;;;39.00;21.17;;;0.60;99.90;;;;;;4245222;27;20324;-56
2023/10/18 02:59:13;;;;;;;42.83;21.40;;;0.60;99.90;;;;;;4246028;27;20340;-59
2023/10/18 03:01:15;;;;;;;37.87;20.63;;;0.60;99.90;;;;;;4244687;27;20283;-59
2023/10/18 03:03:18;;;;;;;35.07;19.40;;;0.60;99.90;;;;;;4245801;27;20692;-59
2023/10/18 03:05:20;;;;;;;39.73;21.83;;;0.60;99.90;;;;;;4244919;27;20298;-57
2023/10/18 03:07:22;;;;;;;39.27;22.20;;;0.70;99.90;;;;;;4246696;27;20302;-61
2023/10/18 03:09:41;;;;;;;39.80;20.97;;;0.70;99.90;;;;;;4246193;27;20312;-61
2023/10/18 03:11:42;;;;;;;36.90;20.30;;;0.70;99.90;;;;;;4229725;28;20658;-61
2023/10/18 03:13:44;;;;;;;40.17;20.43;;;0.70;99.90;;;;;;4228982;28;20321;-61
2023/10/18 03:16:05;;;;;;;37.70;20.23;;;0.80;99.90;;;;;;4242887;27;20303;-61
2023/10/18 03:18:08;;;;;;;35.90;20.30;;;0.70;99.90;;;;;;4244922;27;20308;-60
2023/10/18 03:20:21;;;;;;;36.73;19.87;;;0.70;99.90;;;;;;4246328;27;20104;-56
2023/10/18 03:22:26;;;;;;;38.30;19.07;;;0.70;99.90;;;;;;4245562;27;20378;-58
2023/10/18 03:24:28;;;;;;;34.53;18.53;;;0.70;99.90;;;;;;4245649;27;20291;-60
2023/10/18 03:26:36;;;;;;;33.20;17.37;;;0.70;99.90;;;;;;4245875;27;20263;-60
2023/10/18 03:28:40;;;;;;;36.87;18.47;;;0.70;99.90;;;;;;4245610;27;20263;-60
2023/10/18 03:30:44;;;;;;;28.00;17.40;;;0.60;99.90;;;;;;4243778;27;20313;-57
2023/10/18 03:32:53;;;;;;;32.60;17.27;;;0.60;99.90;;;;;;4245741;27;20291;-59
2023/10/18 03:34:56;;;;;;;33.07;16.40;;;0.60;99.90;;;;;;4245895;27;20759;-59
2023/10/18 03:36:57;;;;;;;36.87;18.70;;;0.60;99.90;;;;;;4244303;27;20268;-61
2023/10/18 03:41:33;;;;;;;29.27;16.00;;;0.50;99.90;;;;;;4226706;28;20276;-57
2023/10/18 03:43:36;;;;;;;29.70;15.10;;;0.50;99.90;;;;;;4228201;28;20240;-56
2023/10/18 03:47:58;;;;;;;32.92;14.93;;;0.40;99.90;;;;;;4245270;27;20320;-60
2023/10/18 03:49:59;;;;;;;28.43;15.70;;;0.30;99.90;;;;;;4244692;27;20175;-59
2023/10/18 03:54:14;;;;;;;33.97;16.30;;;0.30;99.90;;;;;;4244095;27;20658;-61
2023/10/18 03:56:15;;;;;;;26.73;15.03;;;0.20;99.90;;;;;;4245245;27;20304;-59
2023/10/18 03:58:23;;;;;;;26.83;14.47;;;0.20;99.90;;;;;;4232932;27;20308;-59
2023/10/18 04:04:27;;;;;;;27.90;15.77;;;0.10;99.90;;;;;;4245363;27;20295;-56
2023/10/18 04:06:28;;;;;;;24.93;14.97;;;0.20;99.90;;;;;;4243931;27;20263;-58
2023/10/18 04:08:29;;;;;;;24.00;11.13;;;0.10;99.90;;;;;;4244074;27;20271;-59
2023/10/18 04:10:35;;;;;;;27.47;12.70;;;0.10;99.90;;;;;;4244772;27;20275;-58
2023/10/18 04:12:36;;;;;;;23.50;13.53;;;0.10;99.90;;;;;;4244919;27;20286;-57
2023/10/18 04:14:37;;;;;;;26.70;15.23;;;0.10;99.90;;;;;;4243883;27;20747;-57
2023/10/18 04:16:40;;;;;;;29.63;16.30;;;0.00;99.90;;;;;;4244889;27;20677;-60
2023/10/18 04:18:41;;;;;;;31.03;16.23;;;0.00;99.90;;;;;;4244501;27;20366;-57
2023/10/18 04:20:46;;;;;;;24.53;14.20;;;0.00;99.90;;;;;;4244538;27;20275;-58
2023/10/18 04:22:51;;;;;;;28.17;15.37;;;0.10;99.90;;;;;;4244308;27;20263;-58
2023/10/18 04:24:52;;;;;;;30.67;13.23;;;0.00;99.90;;;;;;4244422;27;20348;-55
2023/10/18 04:26:53;;;;;;;24.47;12.73;;;0.00;99.90;;;;;;4240294;27;20319;-57
2023/10/18 04:29:01;;;;;;;24.30;12.07;;;0.00;99.90;;;;;;4231393;27;20765;-59
2023/10/18 04:31:04;;;;;;;23.03;12.20;;;0.10;99.90;;;;;;4242496;27;20299;-62
2023/10/18 04:35:25;;;;;;;30.03;14.30;;;0.10;99.90;;;;;;4239957;27;20371;-58
2023/10/18 04:37:26;;;;;;;31.93;16.80;;;0.10;99.90;;;;;;4243685;27;20855;-58
2023/10/18 04:39:28;;;;;;;36.70;18.70;;;0.00;99.90;;;;;;4244676;27;21030;-58
2023/10/18 04:41:31;;;;;;;26.00;13.33;;;0.00;99.90;;;;;;4243766;27;20354;-59
2023/10/18 04:43:33;;;;;;;25.10;14.23;;;-0.10;99.90;;;;;;4243593;27;20324;-58
2023/10/18 04:45:35;;;;;;;22.33;11.23;;;-0.10;99.90;;;;;;4243597;27;20336;-59
2023/10/18 04:47:40;;;;;;;26.67;13.30;;;-0.10;99.90;;;;;;4245214;27;20283;-56
2023/10/18 04:49:50;;;;;;;29.33;12.80;;;-0.20;99.90;;;;;;4242486;27;20368;-56
2023/10/18 04:51:54;;;;;;;29.58;12.93;;;-0.30;99.90;;;;;;4243647;27;20328;-61
2023/10/18 04:54:02;;;;;;;21.33;11.50;;;-0.40;99.90;;;;;;4242558;27;20083;-55
2023/10/18 04:56:03;;;;;;;22.27;12.07;;;-0.40;99.90;;;;;;4245064;27;20318;-58
2023/10/18 04:58:05;;;;;;;30.07;11.50;;;-0.40;99.90;;;;;;4243278;27;20263;-59
2023/10/18 05:02:29;;;;;;;22.93;12.93;;;-0.40;99.90;;;;;;4227752;27;20749;-59
2023/10/18 05:04:34;;;;;;;27.87;15.03;;;-0.20;99.90;;;;;;4244557;27;20755;-58
2023/10/18 05:06:35;;;;;;;28.33;14.00;;;-0.10;99.90;;;;;;4244397;27;20696;-59
2023/10/18 05:08:36;;;;;;;26.40;14.50;;;0.00;99.90;;;;;;4244311;27;20324;-56
2023/10/18 05:10:37;;;;;;;35.33;19.17;;;0.10;99.90;;;;;;4243924;28;20661;-61
2023/10/18 05:12:46;;;;;;;32.30;18.53;;;0.30;99.90;;;;;;4244116;28;20320;-62
2023/10/18 05:16:59;;;;;;;25.37;14.70;;;0.70;99.90;;;;;;4244294;27;20661;-59
2023/10/18 05:19:00;;;;;;;25.53;14.27;;;1.00;99.90;;;;;;4243445;27;20320;-57
2023/10/18 05:21:08;;;;;;;32.43;16.50;;;1.20;99.90;;;;;;4244007;27;20323;-56
2023/10/18 05:23:10;;;;;;;27.93;15.97;;;1.40;99.90;;;;;;4243955;27;20251;-59
2023/10/18 05:27:24;;;;;;;22.90;14.47;;;1.90;99.90;;;;;;4244418;27;20328;-61
2023/10/18 05:29:25;;;;;;;24.38;13.93;;;2.20;99.90;;;;;;4243304;28;20737;-59
2023/10/18 05:35:45;;;;;;;30.33;14.40;;;3.20;99.90;;;;;;4244433;27;20332;-60
2023/10/18 05:37:59;;;;;;;23.87;14.57;;;3.60;99.90;;;;;;4242880;28;20661;-62
2023/10/18 05:42:21;;;;;;;41.50;16.27;;;4.40;99.90;;;;;;4243664;27;20325;-58
2023/10/18 05:44:23;;;;;;;37.47;20.73;;;4.70;99.90;;;;;;4243934;28;20788;-59
2023/10/18 05:46:33;;;;;;;40.33;20.27;;;5.00;99.90;;;;;;4243498;27;20039;-60
2023/10/18 05:48:40;;;;;;;48.42;24.17;;;5.10;99.90;;;;;;4244277;28;20027;-58
2023/10/18 05:53:11;;;;;;;49.40;25.30;;;5.70;99.90;;;;;;4243601;28;20442;-60
2023/10/18 05:55:12;;;;;;;47.07;25.57;;;6.30;99.90;;;;;;4242750;28;20092;-58
2023/10/18 05:57:21;;;;;;;35.27;20.83;;;6.80;99.90;;;;;;4244075;27;20123;-59
2023/10/18 06:01:23;;;;;;;32.37;16.70;;;7.10;99.90;;;;;;4244416;27;20099;-57
2023/10/18 06:03:27;;;;;;;28.97;15.63;;;7.10;99.90;;;;;;4242824;27;20043;-59
2023/10/18 06:05:33;;;;;;;29.13;15.77;;;6.60;99.90;;;;;;4243971;27;20520;-59
2023/10/18 06:07:34;;;;;;;25.27;14.53;;;6.20;99.90;;;;;;4243048;27;20039;-59
2023/10/18 06:11:48;;;;;;;22.23;11.80;;;5.70;99.90;;;;;;4243057;28;20027;-57
2023/10/18 06:13:49;;;;;;;20.43;11.07;;;5.40;99.90;;;;;;4243826;27;20437;-61
2023/10/18 06:15:50;;;;;;;26.17;12.40;;;5.30;99.90;;;;;;4243354;27;20072;-60
2023/10/18 06:17:56;;;;;;;21.67;11.60;;;5.40;99.90;;;;;;4247115;27;20084;-59
2023/10/18 06:19:57;;;;;;;25.53;11.23;;;5.50;99.90;;;;;;4245939;27;20027;-60
2023/10/18 06:21:59;;;;;;;23.43;11.80;;;5.80;99.90;;;;;;4246463;27;20023;-60
2023/10/18 06:24:08;;;;;;;31.87;13.80;;;6.00;99.90;;;;;;4245521;27;20080;-60
2023/10/18 06:26:30;;;;;;;32.97;15.17;;;6.20;99.90;;;;;;4246080;27;20039;-53
2023/10/18 06:28:31;;;;;;;30.73;13.60;;;6.70;99.90;;;;;;4245376;27;20035;-60
2023/10/18 06:30:35;;;;;;;42.03;17.07;;;6.90;99.90;;;;;;4246357;27;20060;-62
2023/10/18 06:32:39;;;;;;;35.90;14.40;;;6.90;99.90;;;;;;4246129;27;20559;-60
2023/10/18 06:34:45;;;;;;;31.57;14.27;;;6.70;99.90;;;;;;4246126;27;20091;-60
2023/10/18 06:36:49;;;;;;;25.57;13.63;;;6.70;99.90;;;;;;4245938;27;20053;-60
2023/10/18 06:38:51;;;;;;;33.37;12.90;;;6.70;99.90;;;;;;4246087;27;20144;-59
2023/10/18 06:41:00;;;;;;;27.23;13.37;;;6.60;99.90;;;;;;4246565;27;20023;-60
2023/10/18 06:43:03;;;;;;;27.40;13.53;;;7.10;99.90;;;;;;4245691;27;20031;-59
2023/10/18 06:45:15;;;;;;;21.67;11.30;;;7.20;99.90;;;;;;4246118;27;20031;-61
2023/10/18 06:47:16;;;;;;;28.17;13.70;;;7.00;99.90;;;;;;4245470;27;20104;-57
2023/10/18 06:49:17;;;;;;;29.97;14.30;;;6.90;99.90;;;;;;4246416;27;20431;-59
2023/10/18 06:51:26;;;;;;;20.83;12.43;;;6.60;99.90;;;;;;4245275;27;20035;-61
2023/10/18 06:53:28;;;;;;;32.57;13.67;;;6.50;99.90;;;;;;4246644;27;20039;-61
2023/10/18 06:55:41;;;;;;;25.07;14.03;;;6.60;99.90;;;;;;4245156;27;20441;-61
2023/10/18 06:57:42;;;;;;;27.40;14.57;;;7.10;99.90;;;;;;4246742;27;20035;-61
2023/10/18 06:59:48;;;;;;;32.57;16.03;;;7.10;99.90;;;;;;4245443;27;20039;-60
2023/10/18 07:01:54;;;;;;;33.60;15.50;;;7.20;99.90;;;;;;4246445;27;20035;-60
2023/10/18 07:03:56;;;;;;;34.33;15.20;;;7.00;99.90;;;;;;4245285;27;20047;-58
2023/10/18 07:05:57;;;;;;;29.90;16.60;;;7.10;99.90;;;;;;4246485;27;20088;-60
2023/10/18 07:08:01;;;;;;;33.53;15.00;;;7.40;99.90;;;;;;4245222;27;20500;-56
2023/10/18 07:10:04;;;;;;;30.53;15.63;;;7.40;99.90;;;;;;4246320;27;20035;-59
2023/10/18 07:12:10;;;;;;;26.47;16.20;;;7.50;99.90;;;;;;4245322;27;20381;-60
2023/10/18 07:14:12;;;;;;;32.77;16.20;;;7.70;99.90;;;;;;4246281;27;20039;-60
2023/10/18 07:18:27;;;;;;;22.87;11.23;;;7.90;99.90;;;;;;4246434;27;20084;-59
2023/10/18 07:20:33;;;;;;;29.87;15.30;;;7.90;99.90;;;;;;4245378;27;20100;-56
2023/10/18 07:22:44;;;;;;;24.60;14.40;;;7.80;99.90;;;;;;4245930;27;20394;-59
2023/10/18 07:25:04;;;;;;;30.15;13.18;;;7.80;99.90;;;;;;4244620;27;20421;-60
2023/10/18 07:27:08;;;;;;;26.70;12.70;;;7.80;99.90;;;;;;4245539;27;20035;-60
2023/10/18 07:29:09;;;;;;;19.47;11.80;;;8.00;99.90;;;;;;4244675;27;20092;-60
2023/10/18 07:31:11;;;;;;;25.27;12.37;;;8.20;99.90;;;;;;4245931;27;20043;-55
2023/10/18 07:33:12;;;;;;;24.83;14.63;;;8.10;99.90;;;;;;4245251;27;20027;-59
2023/10/18 07:35:26;;;;;;;24.90;13.23;;;8.10;99.90;;;;;;4245116;27;20092;-60
2023/10/18 07:37:47;;;;;;;23.77;12.23;;;8.00;99.90;;;;;;4245186;27;20796;-60
2023/10/18 07:40:07;;;;;;;23.70;12.95;;;8.10;99.90;;;;;;4245540;27;20088;-59
2023/10/18 07:42:11;;;;;;;25.42;13.52;;;7.60;99.90;;;;;;4245093;27;20072;-57
2023/10/18 07:44:13;;;;;;;27.33;13.53;;;7.30;99.90;;;;;;4245356;27;20034;-60
2023/10/18 07:46:17;;;;;;;25.50;13.23;;;7.20;99.90;;;;;;4244832;27;20104;-60
2023/10/18 07:48:19;;;;;;;21.57;12.03;;;7.40;99.90;;;;;;4245028;27;20043;-58
2023/10/18 07:52:40;;;;;;;16.40;11.30;;;6.90;99.90;;;;;;4245024;27;20080;-59
2023/10/18 07:54:42;;;;;;;19.13;11.63;;;6.90;99.90;;;;;;4244836;27;20026;-61
2023/10/18 07:56:49;;;;;;;23.00;12.63;;;7.00;99.90;;;;;;4244888;27;20030;-58
2023/10/18 07:58:53;;;;;;;18.80;12.10;;;7.10;99.90;;;;;;4245489;27;20441;-61
2023/10/18 08:03:09;;;;;;;16.17;10.20;;;7.30;99.90;;;;;;4244769;27;20450;-58
2023/10/18 08:05:11;;;;;;;15.37;9.27;;;7.30;99.90;;;;;;4244017;27;20031;-61
2023/10/18 08:07:16;;;;;;;16.67;10.27;;;7.10;99.90;;;;;;4245307;27;20115;-61
2023/10/18 08:09:28;;;;;;;17.47;10.70;;;7.10;99.90;;;;;;4243953;27;20425;-60
2023/10/18 08:11:33;;;;;;;18.67;10.73;;;7.20;99.90;;;;;;4245737;27;20470;-60
2023/10/18 08:13:44;;;;;;;19.93;10.00;;;7.20;99.90;;;;;;4243617;27;20497;-60
2023/10/18 08:15:50;;;;;;;17.73;10.57;;;7.20;99.90;;;;;;4245138;27;20035;-59
2023/10/18 08:17:58;;;;;;;15.97;10.07;;;7.20;99.90;;;;;;4243673;27;20088;-58
2023/10/18 08:24:24;;;;;;;20.07;10.87;;;7.60;99.90;;;;;;4244582;27;19922;-60
2023/10/18 08:26:26;;;;;;;17.27;10.83;;;7.50;99.90;;;;;;4243619;27;20108;-58
2023/10/18 08:28:28;;;;;;;14.83;10.13;;;7.50;99.90;;;;;;4244754;27;20039;-60
2023/10/18 08:32:45;;;;;;;16.87;9.83;;;7.50;99.90;;;;;;4244759;27;20076;-53
2023/10/18 08:34:48;;;;;;;16.40;9.87;;;7.30;99.90;;;;;;4243705;27;20039;-59
2023/10/18 08:37:01;;;;;;;17.47;10.57;;;7.30;99.90;;;;;;4244820;27;20095;-59
2023/10/18 08:39:02;;;;;;;16.03;10.37;;;7.40;99.90;;;;;;4243057;27;20031;-60
2023/10/18 08:41:15;;;;;;;15.60;9.27;;;7.60;99.90;;;;;;4244998;27;20035;-61
2023/10/18 08:43:29;;;;;;;14.87;9.20;;;7.70;99.90;;;;;;4243807;27;20076;-60
2023/10/18 08:45:36;;;;;;;16.30;9.93;;;7.90;99.90;;;;;;4244931;27;20051;-59
2023/10/18 08:47:46;;;;;;;19.90;10.23;;;7.80;99.90;;;;;;4244085;27;20064;-60
2023/10/18 08:49:50;;;;;;;17.60;9.70;;;7.80;99.90;;;;;;4245010;27;20398;-60
2023/10/18 08:52:04;;;;;;;16.17;9.57;;;7.90;99.90;;;;;;4243388;27;20095;-60
2023/10/18 08:54:17;;;;;;;15.53;8.77;;;7.90;99.90;;;;;;4244698;27;20092;-60
2023/10/18 08:56:29;;;;;;;13.13;8.47;;;8.00;99.90;;;;;;4243431;27;20531;-57
2023/10/18 08:58:33;;;;;;;12.77;9.30;;;8.20;99.90;;;;;;4244582;27;20027;-60
2023/10/18 09:01:03;;;;;;;15.30;8.93;;;8.30;99.90;;;;;;4243420;27;20043;-61
2023/10/18 09:02:58;;;;;;;16.53;9.80;;;8.40;99.90;;;;;;4244380;27;20068;-60
2023/10/18 09:05:01;;;;;;;17.10;9.93;;;8.50;99.90;;;;;;4243700;27;20036;-60
2023/10/18 09:09:23;;;;;;;17.88;10.27;;;8.60;99.90;;;;;;4243733;27;20389;-61
2023/10/18 09:11:27;;;;;;;13.63;8.07;;;8.70;99.90;;;;;;4244517;27;20027;-61
2023/10/18 09:13:37;;;;;;;15.67;8.60;;;8.70;99.90;;;;;;4243418;28;20516;-59
2023/10/18 09:18:03;;;;;;;15.50;9.60;;;8.80;99.90;;;;;;4243508;27;20088;-60
2023/10/18 09:20:15;;;;;;;9.60;5.83;;;9.00;99.90;;;;;;4244566;28;20076;-60
2023/10/18 09:22:16;;;;;;;12.83;7.70;;;9.20;99.90;;;;;;4243518;27;20109;-59
2023/10/18 09:24:24;;;;;;;14.20;7.07;;;9.30;99.90;;;;;;4244288;28;20039;-59
2023/10/18 09:26:28;;;;;;;12.87;7.73;;;9.40;99.90;;;;;;4243358;27;20043;-58
2023/10/18 09:28:32;;;;;;;13.93;7.57;;;9.30;99.90;;;;;;4244304;28;20072;-55
2023/10/18 09:30:35;;;;;;;9.83;6.53;;;9.40;99.90;;;;;;4243336;28;20016;-56
2023/10/18 09:32:37;;;;;;;12.30;7.63;;;9.40;99.90;;;;;;4244695;27;20088;-59
2023/10/18 09:34:38;;;;;;;10.57;7.33;;;9.40;99.90;;;;;;4243390;27;20114;-60
2023/10/18 09:36:56;;;;;;;13.67;7.00;;;9.60;99.90;;;;;;4243841;28;20071;-58
2023/10/18 09:38:57;;;;;;;11.40;6.93;;;9.80;99.90;;;;;;4242842;28;20433;-57
2023/10/18 09:40:59;;;;;;;8.37;6.30;;;10.00;99.90;;;;;;4244393;27;20529;-59
2023/10/18 09:43:00;;;;;;;9.63;6.37;;;10.10;99.90;;;;;;4244014;27;20536;-58
2023/10/18 09:45:02;;;;;;;11.23;6.73;;;10.10;99.90;;;;;;4243999;27;20039;-59
2023/10/18 09:47:04;;;;;;;6.27;4.10;;;10.20;99.90;;;;;;4243753;28;20039;-60
2023/10/18 09:49:09;;;;;;;7.87;5.00;;;10.20;99.90;;;;;;4243393;28;20019;-56
2023/10/18 09:51:15;;;;;;;6.87;5.10;;;10.10;99.90;;;;;;4245033;27;20023;-59
2023/10/18 09:53:22;;;;;;;16.23;9.70;;;10.20;99.90;;;;;;4246288;27;20031;-57
2023/10/18 09:55:27;;;;;;;17.17;9.07;;;10.20;99.90;;;;;;4247364;27;20035;-58
2023/10/18 09:57:35;;;;;;;13.70;8.23;;;10.30;99.90;;;;;;4246267;27;20384;-60
2023/10/18 09:59:37;;;;;;;10.30;6.83;;;10.40;99.90;;;;;;4247474;27;20138;-57
2023/10/18 10:03:50;;;;;;;20.33;11.47;;;10.50;99.90;;;;;;4247333;27;20039;-57
2023/10/18 10:05:52;;;;;;;11.07;6.03;;;10.70;99.90;;;;;;4246178;27;20372;-59
2023/10/18 10:07:55;;;;;;;11.20;6.43;;;10.80;99.90;;;;;;4247191;27;20088;-58
2023/10/18 10:10:07;;;;;;;7.83;6.10;;;10.80;99.90;;;;;;4245881;27;20449;-59
2023/10/18 10:12:10;;;;;;;13.37;5.50;;;10.90;99.90;;;;;;4247643;27;20060;-61
2023/10/18 10:14:16;;;;;;;10.47;4.57;;;10.90;99.90;;;;;;4245919;27;20374;-59
2023/10/18 10:16:21;;;;;;;11.87;6.33;;;10.90;99.90;;;;;;4247281;27;20088;-59
2023/10/18 10:18:28;;;;;;;14.87;7.80;;;11.00;99.90;;;;;;4246048;27;20039;-60
2023/10/18 10:20:33;;;;;;;13.00;7.37;;;11.00;99.90;;;;;;4247247;27;20337;-58
2023/10/18 10:22:37;;;;;;;11.67;7.93;;;11.10;99.90;;;;;;4246084;27;20027;-59
2023/10/18 10:24:43;;;;;;;10.47;6.87;;;11.00;99.90;;;;;;4247254;27;20046;-61
2023/10/18 10:26:47;;;;;;;11.73;7.17;;;11.10;99.90;;;;;;4246051;27;20039;-60
2023/10/18 10:31:20;;;;;;;13.20;6.90;;;11.20;99.90;;;;;;4246288;27;20056;-59
2023/10/18 10:33:23;;;;;;;8.43;5.10;;;11.30;99.90;;;;;;4247009;27;20043;-59
2023/10/18 10:35:25;;;;;;;8.13;5.47;;;11.40;99.90;;;;;;4245600;27;20019;-60
2023/10/18 10:37:28;;;;;;;8.17;4.90;;;11.50;99.90;;;;;;4246698;27;20031;-58
2023/10/18 10:39:32;;;;;;;6.77;3.67;;;11.50;99.90;;;;;;4245829;27;20449;-60
2023/10/18 10:41:34;;;;;;;6.60;4.33;;;11.60;99.90;;;;;;4246604;27;20035;-57
2023/10/18 10:44:06;;;;;;;10.17;5.43;;;11.70;99.90;;;;;;4246653;27;20067;-60
2023/10/18 10:46:35;;;;;;;5.90;3.90;;;11.70;99.90;;;;;;4246979;27;20051;-58
2023/10/18 10:48:45;;;;;;;8.17;3.67;;;11.80;99.90;;;;;;4245788;27;20035;-60
2023/10/18 10:50:57;;;;;;;8.07;3.10;;;11.70;99.90;;;;;;4246513;27;20027;-59
2023/10/18 10:52:58;;;;;;;6.20;3.97;;;11.70;99.90;;;;;;4245384;27;20132;-58
2023/10/18 10:55:22;;;;;;;8.27;3.17;;;11.60;99.90;;;;;;4246697;27;20039;-59
2023/10/18 10:57:27;;;;;;;6.93;3.37;;;11.70;99.90;;;;;;4245457;27;20093;-60
2023/10/18 10:59:36;;;;;;;4.50;3.43;;;11.70;99.90;;;;;;4246123;27;20073;-59
2023/10/18 11:01:43;;;;;;;3.53;2.73;;;11.70;99.90;;;;;;4245064;27;20076;-58
2023/10/18 11:03:54;;;;;;;5.43;3.67;;;11.70;99.90;;;;;;4246450;27;20027;-61
2023/10/18 11:05:58;;;;;;;5.33;3.40;;;11.80;99.90;;;;;;4245094;27;20467;-59
2023/10/18 11:08:01;;;;;;;6.20;3.47;;;12.00;99.90;;;;;;4246289;27;20035;-58
2023/10/18 11:10:14;;;;;;;7.57;3.77;;;12.10;99.90;;;;;;4245248;27;20104;-60
2023/10/18 11:12:17;;;;;;;6.07;3.40;;;12.20;99.90;;;;;;4246347;27;20047;-59
2023/10/18 11:14:27;;;;;;;8.00;4.37;;;12.20;99.90;;;;;;4245479;27;20047;-60
2023/10/18 11:16:28;;;;;;;4.35;3.72;;;12.30;99.90;;;;;;4246096;27;20104;-61
2023/10/18 11:18:34;;;;;;;7.90;3.80;;;12.40;99.90;;;;;;4245161;27;20031;-60
2023/10/18 11:23:15;;;;;;;5.37;3.90;;;12.50;99.90;;;;;;4243511;27;20027;-60
2023/10/18 11:25:20;;;;;;;6.90;4.50;;;12.50;99.90;;;;;;4245833;27;20551;-58
2023/10/18 11:27:23;;;;;;;5.73;4.20;;;12.50;99.90;;;;;;4244555;27;20123;-60
2023/10/18 11:29:24;;;;;;;7.63;4.10;;;12.60;99.90;;;;;;4245362;27;20106;-58
2023/10/18 11:31:29;;;;;;;8.00;4.97;;;12.60;99.90;;;;;;4245099;27;20118;-61
2023/10/18 11:33:36;;;;;;;6.90;4.57;;;12.60;99.90;;;;;;4245541;27;20027;-59
2023/10/18 11:37:44;;;;;;;5.90;4.00;;;12.80;99.90;;;;;;4244915;27;20075;-58
2023/10/18 11:39:48;;;;;;;6.50;3.97;;;12.70;99.90;;;;;;4245044;27;20428;-60
2023/10/18 11:41:49;;;;;;;7.50;3.57;;;12.80;99.90;;;;;;4245229;27;20479;-60
2023/10/18 11:43:51;;;;;;;9.37;4.37;;;12.90;99.90;;;;;;4245814;27;20047;-59
2023/10/18 11:46:08;;;;;;;4.97;3.53;;;12.90;99.90;;;;;;4245121;27;20496;-58
2023/10/18 11:48:09;;;;;;;4.63;3.40;;;12.90;99.40;;;;;;4245364;27;20035;-61